Página principal
METAR-TAF:

METAR-TAF

Aeroportos :

Aeroporto Internacional de Xangai Pudong

Xangai-Pudong, China

latitude: 31-07N, longitude: 121-46E, altura: 4 m

Observação actual do tempo

O boletim foi feito há 29 minutos, às 14:00 UTC
Vento 10 kt de sudeste
Temperatura 27°C
Humidade 89%
Pressão 1009 hPa
Visibilidade 10 km ou mais
Nuvens dispersasa uma altura de 1300 ft

METAR: ZSPD 181400Z 14005MPS 9999 SCT013 27/25 Q1009 BECMG TL1430 BKN013

Hora: 22:29 (14:29 UTC)

Previsão

O boletim foi feito há 5 horas e 14 minutos, às 09:15 UTC
Previsão válida de 18 às 12 UTC a 19 às 12 UTC
Vento 8 kt de sudeste
Visibilidade: 6000 m
Nuvens dispersasa uma altura de 1500 ft

TAF: ZSPD 180915Z 1812/1912 13004MPS 6000 SCT015 TX34/1906Z TN26/1821Z

Observações e previsões do tempo de mais de 4000 aeroportos (mensagens METAR e TAF).

As estações disponíveis são os pontos amarelos e vermelhos sobre o mapa.

Mova o rato sobre o mapa para ver o nome da estação.

Depois clique no ponto para visualizar as observações e previsões meteorológicas.

Para alterar o mapa : clique nos botões verdes com uma cruz preta para aumentar o zoom; no botão verde com uma pitada de zoom; ou nas setas verdes para mapas adjacentes.


METAR-TAF: